sensor_id;sensor_type;location;lat;lon;timestamp;P1;durP1;ratioP1;P2;durP2;ratioP2
15043;SDS011;7619;48.562;8.910;2023-03-01T00:01:09;13.97;;;8.13;;
15043;SDS011;7619;48.562;8.910;2023-03-01T00:03:39;11.57;;;7.87;;
15043;SDS011;7619;48.562;8.910;2023-03-01T00:06:09;12.53;;;7.27;;
15043;SDS011;7619;48.562;8.910;2023-03-01T00:08:37;13.50;;;7.33;;
15043;SDS011;7619;48.562;8.910;2023-03-01T00:11:05;10.97;;;7.17;;
15043;SDS011;7619;48.562;8.910;2023-03-01T00:13:34;11.70;;;7.10;;
15043;SDS011;7619;48.562;8.910;2023-03-01T00:16:03;9.37;;;6.47;;
15043;SDS011;7619;48.562;8.910;2023-03-01T00:18:31;11.97;;;7.43;;
15043;SDS011;7619;48.562;8.910;2023-03-01T00:20:59;13.23;;;7.77;;
15043;SDS011;7619;48.562;8.910;2023-03-01T00:23:28;9.97;;;6.87;;
15043;SDS011;7619;48.562;8.910;2023-03-01T00:25:57;10.90;;;7.57;;
15043;SDS011;7619;48.562;8.910;2023-03-01T00:28:26;11.97;;;6.70;;
15043;SDS011;7619;48.562;8.910;2023-03-01T00:30:55;13.07;;;7.87;;
15043;SDS011;7619;48.562;8.910;2023-03-01T00:33:23;11.73;;;6.80;;
15043;SDS011;7619;48.562;8.910;2023-03-01T00:35:51;11.13;;;7.17;;
15043;SDS011;7619;48.562;8.910;2023-03-01T00:38:19;14.23;;;7.60;;
15043;SDS011;7619;48.562;8.910;2023-03-01T00:40:47;12.43;;;7.73;;
15043;SDS011;7619;48.562;8.910;2023-03-01T00:43:15;11.40;;;6.63;;
15043;SDS011;7619;48.562;8.910;2023-03-01T00:45:43;14.57;;;7.40;;
15043;SDS011;7619;48.562;8.910;2023-03-01T00:48:11;13.17;;;7.10;;
15043;SDS011;7619;48.562;8.910;2023-03-01T00:50:39;12.57;;;7.40;;
15043;SDS011;7619;48.562;8.910;2023-03-01T00:53:06;17.07;;;8.07;;
15043;SDS011;7619;48.562;8.910;2023-03-01T00:55:36;12.50;;;7.07;;
15043;SDS011;7619;48.562;8.910;2023-03-01T00:58:03;13.13;;;6.67;;
15043;SDS011;7619;48.562;8.910;2023-03-01T01:00:32;13.63;;;8.30;;
15043;SDS011;7619;48.562;8.910;2023-03-01T01:03:01;14.00;;;7.53;;
15043;SDS011;7619;48.562;8.910;2023-03-01T01:05:29;10.77;;;6.60;;
15043;SDS011;7619;48.562;8.910;2023-03-01T01:07:57;14.00;;;7.33;;
15043;SDS011;7619;48.562;8.910;2023-03-01T01:10:25;13.90;;;7.70;;
15043;SDS011;7619;48.562;8.910;2023-03-01T01:12:53;16.27;;;9.67;;
15043;SDS011;7619;48.562;8.910;2023-03-01T01:15:21;14.97;;;8.67;;
15043;SDS011;7619;48.562;8.910;2023-03-01T01:17:50;19.03;;;8.80;;
15043;SDS011;7619;48.562;8.910;2023-03-01T01:20:18;21.97;;;12.57;;
15043;SDS011;7619;48.562;8.910;2023-03-01T01:22:46;30.43;;;14.00;;
15043;SDS011;7619;48.562;8.910;2023-03-01T01:25:14;16.30;;;8.47;;
15043;SDS011;7619;48.562;8.910;2023-03-01T01:27:42;14.00;;;8.13;;
15043;SDS011;7619;48.562;8.910;2023-03-01T01:30:11;16.17;;;7.93;;
15043;SDS011;7619;48.562;8.910;2023-03-01T01:32:40;12.60;;;7.03;;
15043;SDS011;7619;48.562;8.910;2023-03-01T01:35:07;10.60;;;6.70;;
15043;SDS011;7619;48.562;8.910;2023-03-01T01:37:36;13.70;;;7.83;;
15043;SDS011;7619;48.562;8.910;2023-03-01T01:40:06;12.13;;;7.57;;
15043;SDS011;7619;48.562;8.910;2023-03-01T01:42:37;11.10;;;7.13;;
15043;SDS011;7619;48.562;8.910;2023-03-01T01:48:18;10.07;;;6.40;;
15043;SDS011;7619;48.562;8.910;2023-03-01T01:50:46;10.27;;;7.00;;
15043;SDS011;7619;48.562;8.910;2023-03-01T01:53:16;14.90;;;7.17;;
15043;SDS011;7619;48.562;8.910;2023-03-01T01:55:48;14.30;;;8.40;;
15043;SDS011;7619;48.562;8.910;2023-03-01T01:58:20;11.73;;;7.27;;
15043;SDS011;7619;48.562;8.910;2023-03-01T02:00:51;11.20;;;7.03;;
15043;SDS011;7619;48.562;8.910;2023-03-01T02:03:22;13.43;;;7.60;;
15043;SDS011;7619;48.562;8.910;2023-03-01T02:05:51;13.27;;;8.03;;
15043;SDS011;7619;48.562;8.910;2023-03-01T02:08:24;13.33;;;7.03;;
15043;SDS011;7619;48.562;8.910;2023-03-01T02:10:52;17.10;;;8.60;;
15043;SDS011;7619;48.562;8.910;2023-03-01T02:13:22;13.63;;;7.30;;
15043;SDS011;7619;48.562;8.910;2023-03-01T02:15:51;19.00;;;8.37;;
15043;SDS011;7619;48.562;8.910;2023-03-01T02:18:20;14.63;;;7.67;;
15043;SDS011;7619;48.562;8.910;2023-03-01T02:20:54;17.50;;;8.67;;
15043;SDS011;7619;48.562;8.910;2023-03-01T02:23:21;12.67;;;7.83;;
15043;SDS011;7619;48.562;8.910;2023-03-01T02:25:52;14.07;;;7.60;;
15043;SDS011;7619;48.562;8.910;2023-03-01T02:28:31;14.83;;;7.97;;
15043;SDS011;7619;48.562;8.910;2023-03-01T02:30:59;21.50;;;8.37;;
15043;SDS011;7619;48.562;8.910;2023-03-01T02:33:47;14.67;;;8.07;;
15043;SDS011;7619;48.562;8.910;2023-03-01T02:36:16;12.20;;;6.90;;
15043;SDS011;7619;48.562;8.910;2023-03-01T02:38:44;15.70;;;8.03;;
15043;SDS011;7619;48.562;8.910;2023-03-01T02:41:15;16.47;;;9.27;;
15043;SDS011;7619;48.562;8.910;2023-03-01T02:43:46;10.83;;;7.23;;
15043;SDS011;7619;48.562;8.910;2023-03-01T02:46:16;16.90;;;8.67;;
15043;SDS011;7619;48.562;8.910;2023-03-01T02:48:45;13.40;;;8.27;;
15043;SDS011;7619;48.562;8.910;2023-03-01T02:51:21;14.87;;;7.77;;
15043;SDS011;7619;48.562;8.910;2023-03-01T02:53:52;16.27;;;8.83;;
15043;SDS011;7619;48.562;8.910;2023-03-01T02:56:20;14.40;;;8.27;;
15043;SDS011;7619;48.562;8.910;2023-03-01T02:58:48;15.53;;;9.10;;
15043;SDS011;7619;48.562;8.910;2023-03-01T03:01:18;13.40;;;7.43;;
15043;SDS011;7619;48.562;8.910;2023-03-01T03:03:46;14.97;;;9.17;;
15043;SDS011;7619;48.562;8.910;2023-03-01T03:06:14;16.40;;;9.17;;
15043;SDS011;7619;48.562;8.910;2023-03-01T03:08:42;14.23;;;8.27;;
15043;SDS011;7619;48.562;8.910;2023-03-01T03:11:10;12.67;;;7.83;;
15043;SDS011;7619;48.562;8.910;2023-03-01T03:13:38;16.03;;;8.27;;
15043;SDS011;7619;48.562;8.910;2023-03-01T03:16:09;13.33;;;7.60;;
15043;SDS011;7619;48.562;8.910;2023-03-01T03:18:38;15.67;;;8.53;;
15043;SDS011;7619;48.562;8.910;2023-03-01T03:21:08;14.43;;;8.17;;
15043;SDS011;7619;48.562;8.910;2023-03-01T03:23:37;15.90;;;9.13;;
15043;SDS011;7619;48.562;8.910;2023-03-01T03:26:06;16.43;;;8.87;;
15043;SDS011;7619;48.562;8.910;2023-03-01T03:28:34;14.23;;;8.83;;
15043;SDS011;7619;48.562;8.910;2023-03-01T03:31:05;12.67;;;7.90;;
15043;SDS011;7619;48.562;8.910;2023-03-01T03:33:34;17.13;;;8.77;;
15043;SDS011;7619;48.562;8.910;2023-03-01T03:36:02;16.27;;;8.77;;
15043;SDS011;7619;48.562;8.910;2023-03-01T03:38:30;16.13;;;8.73;;
15043;SDS011;7619;48.562;8.910;2023-03-01T03:41:00;19.60;;;9.70;;
15043;SDS011;7619;48.562;8.910;2023-03-01T03:43:28;13.67;;;8.37;;
15043;SDS011;7619;48.562;8.910;2023-03-01T03:45:58;13.27;;;9.00;;
15043;SDS011;7619;48.562;8.910;2023-03-01T03:48:30;12.80;;;8.50;;
15043;SDS011;7619;48.562;8.910;2023-03-01T03:50:57;14.37;;;8.60;;
15043;SDS011;7619;48.562;8.910;2023-03-01T03:53:27;14.90;;;8.53;;
15043;SDS011;7619;48.562;8.910;2023-03-01T03:55:55;13.90;;;7.53;;
15043;SDS011;7619;48.562;8.910;2023-03-01T03:58:25;13.53;;;8.07;;
15043;SDS011;7619;48.562;8.910;2023-03-01T04:00:53;16.67;;;9.67;;
15043;SDS011;7619;48.562;8.910;2023-03-01T04:03:24;14.93;;;8.77;;
15043;SDS011;7619;48.562;8.910;2023-03-01T04:05:53;14.63;;;8.30;;
15043;SDS011;7619;48.562;8.910;2023-03-01T04:08:24;11.30;;;7.80;;
15043;SDS011;7619;48.562;8.910;2023-03-01T04:10:56;14.53;;;8.47;;
15043;SDS011;7619;48.562;8.910;2023-03-01T04:13:22;18.27;;;9.60;;
15043;SDS011;7619;48.562;8.910;2023-03-01T04:15:51;17.10;;;9.67;;
15043;SDS011;7619;48.562;8.910;2023-03-01T04:18:21;16.37;;;9.43;;
15043;SDS011;7619;48.562;8.910;2023-03-01T04:20:52;12.00;;;8.37;;
15043;SDS011;7619;48.562;8.910;2023-03-01T04:23:22;15.40;;;8.87;;
15043;SDS011;7619;48.562;8.910;2023-03-01T04:25:52;14.80;;;8.93;;
15043;SDS011;7619;48.562;8.910;2023-03-01T04:28:21;20.27;;;9.40;;
15043;SDS011;7619;48.562;8.910;2023-03-01T04:30:52;18.23;;;9.63;;
15043;SDS011;7619;48.562;8.910;2023-03-01T04:33:21;16.83;;;9.13;;
15043;SDS011;7619;48.562;8.910;2023-03-01T04:35:51;14.83;;;8.20;;
15043;SDS011;7619;48.562;8.910;2023-03-01T04:38:19;16.33;;;9.17;;
15043;SDS011;7619;48.562;8.910;2023-03-01T04:40:48;17.30;;;9.17;;
15043;SDS011;7619;48.562;8.910;2023-03-01T04:43:17;14.43;;;8.90;;
15043;SDS011;7619;48.562;8.910;2023-03-01T04:45:46;14.63;;;8.73;;
15043;SDS011;7619;48.562;8.910;2023-03-01T04:48:15;16.53;;;9.43;;
15043;SDS011;7619;48.562;8.910;2023-03-01T04:50:43;13.90;;;7.93;;
15043;SDS011;7619;48.562;8.910;2023-03-01T04:53:11;14.33;;;8.17;;
15043;SDS011;7619;48.562;8.910;2023-03-01T04:55:39;20.23;;;9.40;;
15043;SDS011;7619;48.562;8.910;2023-03-01T04:58:07;15.80;;;9.63;;
15043;SDS011;7619;48.562;8.910;2023-03-01T05:00:36;14.53;;;8.93;;
15043;SDS011;7619;48.562;8.910;2023-03-01T05:03:03;19.70;;;10.07;;
15043;SDS011;7619;48.562;8.910;2023-03-01T05:05:33;15.53;;;10.23;;
15043;SDS011;7619;48.562;8.910;2023-03-01T05:08:04;15.70;;;9.10;;
15043;SDS011;7619;48.562;8.910;2023-03-01T05:10:34;14.07;;;8.27;;
15043;SDS011;7619;48.562;8.910;2023-03-01T05:13:04;17.33;;;9.77;;
15043;SDS011;7619;48.562;8.910;2023-03-01T05:15:34;18.07;;;9.03;;
15043;SDS011;7619;48.562;8.910;2023-03-01T05:18:02;20.67;;;9.73;;
15043;SDS011;7619;48.562;8.910;2023-03-01T05:20:33;16.60;;;9.57;;
15043;SDS011;7619;48.562;8.910;2023-03-01T05:23:02;14.30;;;8.57;;
15043;SDS011;7619;48.562;8.910;2023-03-01T05:25:32;16.23;;;8.93;;
15043;SDS011;7619;48.562;8.910;2023-03-01T05:28:01;18.50;;;8.70;;
15043;SDS011;7619;48.562;8.910;2023-03-01T05:30:30;18.37;;;10.17;;
15043;SDS011;7619;48.562;8.910;2023-03-01T05:33:00;16.77;;;9.10;;
15043;SDS011;7619;48.562;8.910;2023-03-01T05:35:28;18.23;;;10.20;;
15043;SDS011;7619;48.562;8.910;2023-03-01T05:37:58;19.30;;;10.03;;
15043;SDS011;7619;48.562;8.910;2023-03-01T05:40:27;14.93;;;9.20;;
15043;SDS011;7619;48.562;8.910;2023-03-01T05:42:56;14.93;;;9.53;;
15043;SDS011;7619;48.562;8.910;2023-03-01T05:45:24;15.40;;;9.03;;
15043;SDS011;7619;48.562;8.910;2023-03-01T05:47:54;17.60;;;9.73;;
15043;SDS011;7619;48.562;8.910;2023-03-01T05:50:23;25.10;;;11.80;;
15043;SDS011;7619;48.562;8.910;2023-03-01T05:52:51;16.47;;;9.83;;
15043;SDS011;7619;48.562;8.910;2023-03-01T05:55:22;21.20;;;9.43;;
15043;SDS011;7619;48.562;8.910;2023-03-01T05:57:50;16.60;;;9.67;;
15043;SDS011;7619;48.562;8.910;2023-03-01T06:00:20;16.27;;;10.27;;
15043;SDS011;7619;48.562;8.910;2023-03-01T06:02:48;21.60;;;11.10;;
15043;SDS011;7619;48.562;8.910;2023-03-01T06:05:18;18.57;;;9.90;;
15043;SDS011;7619;48.562;8.910;2023-03-01T06:07:46;19.07;;;10.27;;
15043;SDS011;7619;48.562;8.910;2023-03-01T06:10:14;16.37;;;9.60;;
15043;SDS011;7619;48.562;8.910;2023-03-01T06:12:42;15.03;;;9.23;;
15043;SDS011;7619;48.562;8.910;2023-03-01T06:15:11;16.40;;;9.50;;
15043;SDS011;7619;48.562;8.910;2023-03-01T06:17:40;16.43;;;9.23;;
15043;SDS011;7619;48.562;8.910;2023-03-01T06:20:11;17.60;;;10.07;;
15043;SDS011;7619;48.562;8.910;2023-03-01T06:22:41;18.07;;;11.13;;
15043;SDS011;7619;48.562;8.910;2023-03-01T06:25:12;17.57;;;9.73;;
15043;SDS011;7619;48.562;8.910;2023-03-01T06:27:40;17.43;;;9.27;;
15043;SDS011;7619;48.562;8.910;2023-03-01T06:30:10;22.17;;;10.20;;
15043;SDS011;7619;48.562;8.910;2023-03-01T06:32:41;14.87;;;9.83;;
15043;SDS011;7619;48.562;8.910;2023-03-01T06:35:09;18.60;;;9.87;;
15043;SDS011;7619;48.562;8.910;2023-03-01T06:37:39;17.63;;;9.90;;
15043;SDS011;7619;48.562;8.910;2023-03-01T06:40:09;15.60;;;10.03;;
15043;SDS011;7619;48.562;8.910;2023-03-01T06:42:39;15.57;;;9.43;;
15043;SDS011;7619;48.562;8.910;2023-03-01T06:45:08;19.77;;;11.07;;
15043;SDS011;7619;48.562;8.910;2023-03-01T06:47:36;13.67;;;9.13;;
15043;SDS011;7619;48.562;8.910;2023-03-01T06:50:05;16.40;;;9.60;;
15043;SDS011;7619;48.562;8.910;2023-03-01T06:52:33;19.10;;;11.30;;
15043;SDS011;7619;48.562;8.910;2023-03-01T06:55:01;16.73;;;10.60;;
15043;SDS011;7619;48.562;8.910;2023-03-01T06:57:29;16.07;;;10.13;;
15043;SDS011;7619;48.562;8.910;2023-03-01T06:59:57;22.80;;;11.23;;
15043;SDS011;7619;48.562;8.910;2023-03-01T07:02:25;17.80;;;10.83;;
15043;SDS011;7619;48.562;8.910;2023-03-01T07:04:53;14.80;;;9.67;;
15043;SDS011;7619;48.562;8.910;2023-03-01T07:07:21;18.63;;;11.20;;
15043;SDS011;7619;48.562;8.910;2023-03-01T07:09:49;16.50;;;10.43;;
15043;SDS011;7619;48.562;8.910;2023-03-01T07:12:19;15.83;;;10.10;;
15043;SDS011;7619;48.562;8.910;2023-03-01T07:14:47;17.07;;;9.90;;
15043;SDS011;7619;48.562;8.910;2023-03-01T07:17:15;20.40;;;10.93;;
15043;SDS011;7619;48.562;8.910;2023-03-01T07:19:43;19.80;;;10.47;;
15043;SDS011;7619;48.562;8.910;2023-03-01T07:22:11;23.33;;;9.87;;
15043;SDS011;7619;48.562;8.910;2023-03-01T07:24:41;22.00;;;11.50;;
15043;SDS011;7619;48.562;8.910;2023-03-01T07:27:10;23.83;;;11.77;;
15043;SDS011;7619;48.562;8.910;2023-03-01T07:29:38;17.90;;;10.43;;
15043;SDS011;7619;48.562;8.910;2023-03-01T07:32:06;17.43;;;10.80;;
15043;SDS011;7619;48.562;8.910;2023-03-01T07:34:34;16.93;;;10.50;;
15043;SDS011;7619;48.562;8.910;2023-03-01T07:37:03;17.87;;;11.20;;
15043;SDS011;7619;48.562;8.910;2023-03-01T07:39:31;17.67;;;10.57;;
15043;SDS011;7619;48.562;8.910;2023-03-01T07:42:00;16.20;;;9.20;;
15043;SDS011;7619;48.562;8.910;2023-03-01T07:44:28;20.30;;;10.23;;
15043;SDS011;7619;48.562;8.910;2023-03-01T07:46:56;21.30;;;11.70;;
15043;SDS011;7619;48.562;8.910;2023-03-01T07:49:24;17.17;;;10.83;;
15043;SDS011;7619;48.562;8.910;2023-03-01T07:51:53;19.40;;;11.27;;
15043;SDS011;7619;48.562;8.910;2023-03-01T07:54:22;18.93;;;10.33;;
15043;SDS011;7619;48.562;8.910;2023-03-01T07:56:50;18.77;;;9.77;;
15043;SDS011;7619;48.562;8.910;2023-03-01T07:59:18;20.63;;;10.73;;
15043;SDS011;7619;48.562;8.910;2023-03-01T08:01:46;23.23;;;10.90;;
15043;SDS011;7619;48.562;8.910;2023-03-01T08:04:14;18.53;;;11.70;;
15043;SDS011;7619;48.562;8.910;2023-03-01T08:06:42;15.57;;;9.63;;
15043;SDS011;7619;48.562;8.910;2023-03-01T08:09:10;17.27;;;11.17;;
15043;SDS011;7619;48.562;8.910;2023-03-01T08:11:38;15.63;;;11.00;;
15043;SDS011;7619;48.562;8.910;2023-03-01T08:14:06;14.03;;;10.00;;
15043;SDS011;7619;48.562;8.910;2023-03-01T08:16:34;15.77;;;10.37;;
15043;SDS011;7619;48.562;8.910;2023-03-01T08:19:06;15.43;;;10.10;;
15043;SDS011;7619;48.562;8.910;2023-03-01T08:21:36;16.30;;;10.93;;
15043;SDS011;7619;48.562;8.910;2023-03-01T08:24:06;13.90;;;9.40;;
15043;SDS011;7619;48.562;8.910;2023-03-01T08:26:36;13.93;;;9.73;;
15043;SDS011;7619;48.562;8.910;2023-03-01T08:29:04;15.97;;;10.60;;
15043;SDS011;7619;48.562;8.910;2023-03-01T08:31:34;13.97;;;10.10;;
15043;SDS011;7619;48.562;8.910;2023-03-01T08:34:04;18.13;;;10.87;;
15043;SDS011;7619;48.562;8.910;2023-03-01T08:36:35;14.63;;;10.50;;
15043;SDS011;7619;48.562;8.910;2023-03-01T08:39:03;18.33;;;10.40;;
15043;SDS011;7619;48.562;8.910;2023-03-01T08:41:33;14.97;;;11.33;;
15043;SDS011;7619;48.562;8.910;2023-03-01T08:44:01;20.20;;;9.93;;
15043;SDS011;7619;48.562;8.910;2023-03-01T08:46:30;17.97;;;10.63;;
15043;SDS011;7619;48.562;8.910;2023-03-01T08:48:58;16.47;;;10.57;;
15043;SDS011;7619;48.562;8.910;2023-03-01T08:51:27;16.97;;;11.03;;
15043;SDS011;7619;48.562;8.910;2023-03-01T08:53:56;20.47;;;10.70;;
15043;SDS011;7619;48.562;8.910;2023-03-01T08:56:23;18.80;;;10.80;;
15043;SDS011;7619;48.562;8.910;2023-03-01T08:58:52;15.83;;;9.40;;
15043;SDS011;7619;48.562;8.910;2023-03-01T09:01:19;15.93;;;8.97;;
15043;SDS011;7619;48.562;8.910;2023-03-01T09:03:48;14.27;;;9.40;;
15043;SDS011;7619;48.562;8.910;2023-03-01T09:06:16;16.90;;;10.50;;
15043;SDS011;7619;48.562;8.910;2023-03-01T09:08:44;18.00;;;10.40;;
15043;SDS011;7619;48.562;8.910;2023-03-01T09:11:13;15.77;;;9.83;;
15043;SDS011;7619;48.562;8.910;2023-03-01T09:13:44;16.30;;;11.03;;
15043;SDS011;7619;48.562;8.910;2023-03-01T09:16:12;16.97;;;9.97;;
15043;SDS011;7619;48.562;8.910;2023-03-01T09:18:40;16.43;;;11.47;;
15043;SDS011;7619;48.562;8.910;2023-03-01T09:21:12;16.30;;;10.93;;
15043;SDS011;7619;48.562;8.910;2023-03-01T09:23:40;13.33;;;9.43;;
15043;SDS011;7619;48.562;8.910;2023-03-01T09:26:09;15.53;;;9.97;;
15043;SDS011;7619;48.562;8.910;2023-03-01T09:28:37;17.90;;;10.70;;
15043;SDS011;7619;48.562;8.910;2023-03-01T09:31:07;18.93;;;11.00;;
15043;SDS011;7619;48.562;8.910;2023-03-01T09:33:36;12.87;;;9.10;;
15043;SDS011;7619;48.562;8.910;2023-03-01T09:36:05;14.50;;;9.37;;
15043;SDS011;7619;48.562;8.910;2023-03-01T09:38:33;14.07;;;10.33;;
15043;SDS011;7619;48.562;8.910;2023-03-01T09:41:08;15.30;;;9.93;;
15043;SDS011;7619;48.562;8.910;2023-03-01T09:43:46;15.80;;;9.87;;
15043;SDS011;7619;48.562;8.910;2023-03-01T09:46:19;18.27;;;11.07;;
15043;SDS011;7619;48.562;8.910;2023-03-01T09:48:51;15.83;;;10.00;;
15043;SDS011;7619;48.562;8.910;2023-03-01T09:51:22;12.93;;;10.63;;
15043;SDS011;7619;48.562;8.910;2023-03-01T09:53:49;13.20;;;9.47;;
15043;SDS011;7619;48.562;8.910;2023-03-01T09:56:20;14.03;;;9.30;;
15043;SDS011;7619;48.562;8.910;2023-03-01T09:58:53;15.23;;;9.43;;
15043;SDS011;7619;48.562;8.910;2023-03-01T10:01:29;13.07;;;9.20;;
15043;SDS011;7619;48.562;8.910;2023-03-01T10:04:02;14.63;;;10.10;;
15043;SDS011;7619;48.562;8.910;2023-03-01T10:06:40;13.97;;;8.17;;
15043;SDS011;7619;48.562;8.910;2023-03-01T10:09:12;16.63;;;9.33;;
15043;SDS011;7619;48.562;8.910;2023-03-01T10:11:42;12.87;;;9.40;;
15043;SDS011;7619;48.562;8.910;2023-03-01T10:14:15;14.50;;;10.13;;
15043;SDS011;7619;48.562;8.910;2023-03-01T10:16:46;16.03;;;10.27;;
15043;SDS011;7619;48.562;8.910;2023-03-01T10:19:14;13.27;;;9.17;;
15043;SDS011;7619;48.562;8.910;2023-03-01T10:21:44;15.70;;;10.10;;
15043;SDS011;7619;48.562;8.910;2023-03-01T10:24:14;12.33;;;8.90;;
15043;SDS011;7619;48.562;8.910;2023-03-01T10:26:44;13.33;;;9.00;;
15043;SDS011;7619;48.562;8.910;2023-03-01T10:29:23;14.00;;;9.30;;
15043;SDS011;7619;48.562;8.910;2023-03-01T10:31:52;12.73;;;8.97;;
15043;SDS011;7619;48.562;8.910;2023-03-01T10:34:21;12.03;;;9.80;;
15043;SDS011;7619;48.562;8.910;2023-03-01T10:36:50;13.30;;;9.83;;
15043;SDS011;7619;48.562;8.910;2023-03-01T10:39:21;16.67;;;9.10;;
15043;SDS011;7619;48.562;8.910;2023-03-01T10:41:56;14.67;;;9.27;;
15043;SDS011;7619;48.562;8.910;2023-03-01T10:44:36;15.10;;;8.57;;
15043;SDS011;7619;48.562;8.910;2023-03-01T10:47:14;11.33;;;8.23;;
15043;SDS011;7619;48.562;8.910;2023-03-01T10:52:42;14.43;;;9.00;;
15043;SDS011;7619;48.562;8.910;2023-03-01T10:55:23;14.03;;;10.03;;
15043;SDS011;7619;48.562;8.910;2023-03-01T10:58:06;13.83;;;8.70;;
15043;SDS011;7619;48.562;8.910;2023-03-01T11:00:35;14.27;;;9.07;;
15043;SDS011;7619;48.562;8.910;2023-03-01T11:03:10;13.07;;;9.77;;
15043;SDS011;7619;48.562;8.910;2023-03-01T11:05:54;15.63;;;9.30;;
15043;SDS011;7619;48.562;8.910;2023-03-01T11:08:35;12.97;;;9.37;;
15043;SDS011;7619;48.562;8.910;2023-03-01T11:11:05;14.60;;;9.87;;
15043;SDS011;7619;48.562;8.910;2023-03-01T11:13:33;12.23;;;9.10;;
15043;SDS011;7619;48.562;8.910;2023-03-01T11:16:04;13.67;;;9.37;;
15043;SDS011;7619;48.562;8.910;2023-03-01T11:18:32;13.13;;;9.73;;
15043;SDS011;7619;48.562;8.910;2023-03-01T11:21:01;12.70;;;9.50;;
15043;SDS011;7619;48.562;8.910;2023-03-01T11:23:32;13.20;;;8.47;;
15043;SDS011;7619;48.562;8.910;2023-03-01T11:26:04;15.83;;;9.93;;
15043;SDS011;7619;48.562;8.910;2023-03-01T11:28:35;14.23;;;9.03;;
15043;SDS011;7619;48.562;8.910;2023-03-01T11:31:14;17.03;;;10.27;;
15043;SDS011;7619;48.562;8.910;2023-03-01T11:36:22;14.30;;;9.23;;
15043;SDS011;7619;48.562;8.910;2023-03-01T11:38:48;12.50;;;8.50;;
15043;SDS011;7619;48.562;8.910;2023-03-01T11:41:20;12.90;;;8.97;;
15043;SDS011;7619;48.562;8.910;2023-03-01T11:43:50;16.60;;;10.03;;
15043;SDS011;7619;48.562;8.910;2023-03-01T11:46:43;17.97;;;10.40;;
15043;SDS011;7619;48.562;8.910;2023-03-01T11:49:16;16.07;;;9.23;;
15043;SDS011;7619;48.562;8.910;2023-03-01T11:51:55;14.67;;;9.40;;
15043;SDS011;7619;48.562;8.910;2023-03-01T11:54:33;11.80;;;9.10;;
15043;SDS011;7619;48.562;8.910;2023-03-01T11:57:02;14.10;;;10.27;;
15043;SDS011;7619;48.562;8.910;2023-03-01T11:59:48;12.53;;;8.90;;
15043;SDS011;7619;48.562;8.910;2023-03-01T12:02:32;13.70;;;9.20;;
15043;SDS011;7619;48.562;8.910;2023-03-01T12:05:02;16.77;;;9.87;;
15043;SDS011;7619;48.562;8.910;2023-03-01T12:07:32;15.73;;;9.50;;
15043;SDS011;7619;48.562;8.910;2023-03-01T12:10:07;14.30;;;9.57;;
15043;SDS011;7619;48.562;8.910;2023-03-01T12:12:54;12.57;;;9.13;;
15043;SDS011;7619;48.562;8.910;2023-03-01T12:15:27;13.27;;;9.00;;
15043;SDS011;7619;48.562;8.910;2023-03-01T12:18:01;11.90;;;7.97;;
15043;SDS011;7619;48.562;8.910;2023-03-01T12:20:45;13.97;;;9.30;;
15043;SDS011;7619;48.562;8.910;2023-03-01T12:23:21;12.23;;;8.83;;
15043;SDS011;7619;48.562;8.910;2023-03-01T12:25:48;13.17;;;8.67;;
15043;SDS011;7619;48.562;8.910;2023-03-01T12:31:11;12.87;;;8.30;;
15043;SDS011;7619;48.562;8.910;2023-03-01T12:33:43;20.83;;;9.67;;
15043;SDS011;7619;48.562;8.910;2023-03-01T12:36:22;12.23;;;7.63;;
15043;SDS011;7619;48.562;8.910;2023-03-01T12:39:04;13.07;;;9.17;;
15043;SDS011;7619;48.562;8.910;2023-03-01T12:41:42;17.43;;;9.67;;
15043;SDS011;7619;48.562;8.910;2023-03-01T12:44:12;12.20;;;7.87;;
15043;SDS011;7619;48.562;8.910;2023-03-01T12:46:47;14.30;;;9.17;;
15043;SDS011;7619;48.562;8.910;2023-03-01T12:49:20;11.33;;;8.37;;
15043;SDS011;7619;48.562;8.910;2023-03-01T12:51:58;12.10;;;8.50;;
15043;SDS011;7619;48.562;8.910;2023-03-01T12:54:30;11.17;;;8.23;;
15043;SDS011;7619;48.562;8.910;2023-03-01T12:57:05;11.97;;;8.00;;
15043;SDS011;7619;48.562;8.910;2023-03-01T12:59:33;13.83;;;8.63;;
15043;SDS011;7619;48.562;8.910;2023-03-01T13:02:03;14.97;;;8.87;;
15043;SDS011;7619;48.562;8.910;2023-03-01T13:04:36;13.77;;;9.50;;
15043;SDS011;7619;48.562;8.910;2023-03-01T13:07:16;14.33;;;9.40;;
15043;SDS011;7619;48.562;8.910;2023-03-01T13:12:45;14.13;;;8.93;;
15043;SDS011;7619;48.562;8.910;2023-03-01T13:15:25;13.97;;;9.93;;
15043;SDS011;7619;48.562;8.910;2023-03-01T13:17:53;15.77;;;9.33;;
15043;SDS011;7619;48.562;8.910;2023-03-01T13:20:23;13.10;;;8.63;;
15043;SDS011;7619;48.562;8.910;2023-03-01T13:23:00;13.13;;;9.80;;
15043;SDS011;7619;48.562;8.910;2023-03-01T13:25:29;15.33;;;9.07;;
15043;SDS011;7619;48.562;8.910;2023-03-01T13:31:07;14.23;;;9.27;;
15043;SDS011;7619;48.562;8.910;2023-03-01T13:33:41;16.37;;;8.80;;
15043;SDS011;7619;48.562;8.910;2023-03-01T13:36:13;12.67;;;8.83;;
15043;SDS011;7619;48.562;8.910;2023-03-01T13:39:01;13.73;;;9.13;;
15043;SDS011;7619;48.562;8.910;2023-03-01T13:44:32;13.17;;;9.40;;
15043;SDS011;7619;48.562;8.910;2023-03-01T13:47:03;16.33;;;8.60;;
15043;SDS011;7619;48.562;8.910;2023-03-01T13:49:36;13.70;;;8.80;;
15043;SDS011;7619;48.562;8.910;2023-03-01T13:52:05;10.53;;;8.00;;
15043;SDS011;7619;48.562;8.910;2023-03-01T13:54:32;15.53;;;8.97;;
15043;SDS011;7619;48.562;8.910;2023-03-01T13:57:02;11.10;;;8.37;;
15043;SDS011;7619;48.562;8.910;2023-03-01T13:59:30;14.33;;;9.10;;
15043;SDS011;7619;48.562;8.910;2023-03-01T14:01:59;12.90;;;8.30;;
15043;SDS011;7619;48.562;8.910;2023-03-01T14:04:27;14.00;;;7.97;;
15043;SDS011;7619;48.562;8.910;2023-03-01T14:07:18;12.57;;;8.63;;
15043;SDS011;7619;48.562;8.910;2023-03-01T14:09:52;15.23;;;9.10;;
15043;SDS011;7619;48.562;8.910;2023-03-01T14:12:26;13.90;;;8.80;;
15043;SDS011;7619;48.562;8.910;2023-03-01T14:14:57;12.13;;;7.70;;
15043;SDS011;7619;48.562;8.910;2023-03-01T14:17:39;13.67;;;8.00;;
15043;SDS011;7619;48.562;8.910;2023-03-01T14:20:12;13.60;;;8.60;;
15043;SDS011;7619;48.562;8.910;2023-03-01T14:22:46;13.90;;;9.10;;
15043;SDS011;7619;48.562;8.910;2023-03-01T14:25:19;11.90;;;8.23;;
15043;SDS011;7619;48.562;8.910;2023-03-01T14:27:51;14.47;;;8.83;;
15043;SDS011;7619;48.562;8.910;2023-03-01T14:30:21;11.37;;;7.87;;
15043;SDS011;7619;48.562;8.910;2023-03-01T14:32:53;15.33;;;8.60;;
15043;SDS011;7619;48.562;8.910;2023-03-01T14:35:24;11.70;;;7.77;;
15043;SDS011;7619;48.562;8.910;2023-03-01T14:37:55;13.07;;;7.63;;
15043;SDS011;7619;48.562;8.910;2023-03-01T14:40:24;12.10;;;7.97;;
15043;SDS011;7619;48.562;8.910;2023-03-01T14:42:56;10.17;;;7.63;;
15043;SDS011;7619;48.562;8.910;2023-03-01T14:45:26;9.47;;;7.07;;
15043;SDS011;7619;48.562;8.910;2023-03-01T14:47:54;11.63;;;8.47;;
15043;SDS011;7619;48.562;8.910;2023-03-01T14:50:24;12.50;;;7.67;;
15043;SDS011;7619;48.562;8.910;2023-03-01T14:52:53;11.33;;;7.70;;
15043;SDS011;7619;48.562;8.910;2023-03-01T14:55:26;14.50;;;8.97;;
15043;SDS011;7619;48.562;8.910;2023-03-01T14:57:57;13.33;;;7.77;;
15043;SDS011;7619;48.562;8.910;2023-03-01T15:00:26;10.03;;;7.13;;
15043;SDS011;7619;48.562;8.910;2023-03-01T15:02:54;12.10;;;7.70;;
15043;SDS011;7619;48.562;8.910;2023-03-01T15:05:27;13.00;;;7.87;;
15043;SDS011;7619;48.562;8.910;2023-03-01T15:07:55;11.00;;;7.17;;
15043;SDS011;7619;48.562;8.910;2023-03-01T15:10:25;10.27;;;6.93;;
15043;SDS011;7619;48.562;8.910;2023-03-01T15:12:53;12.57;;;7.73;;
15043;SDS011;7619;48.562;8.910;2023-03-01T15:15:33;11.77;;;8.20;;
15043;SDS011;7619;48.562;8.910;2023-03-01T15:18:03;9.93;;;7.80;;
15043;SDS011;7619;48.562;8.910;2023-03-01T15:20:31;16.03;;;8.80;;
15043;SDS011;7619;48.562;8.910;2023-03-01T15:23:04;16.90;;;9.83;;
15043;SDS011;7619;48.562;8.910;2023-03-01T15:25:34;12.50;;;9.03;;